Time;durP1;ratioP1;P1;durP2;ratioP2;P2;SDS_P1;SDS_P2;PMS_P1;PMS_P2;Temp;Humidity;BMP_temperature;BMP_pressure;BME280_temperature;BME280_humidity;BME280_pressure;Samples;Min_cycle;Max_cycle;Signal;HPM_P1;HPM_P2
2021/07/18 00:00:09;;;;;;;13.43;11.90;;;20.30;86.60;;;;;;5089840;27;20043;-64
2021/07/18 00:02:35;;;;;;;20.40;13.05;;;20.30;86.00;;;;;;5087680;27;20525;-64
2021/07/18 00:05:01;;;;;;;14.15;11.60;;;20.30;85.80;;;;;;5089162;27;20028;-64
2021/07/18 00:07:26;;;;;;;18.95;12.52;;;20.40;85.80;;;;;;5084635;28;20067;-64
2021/07/18 00:09:52;;;;;;;17.08;11.80;;;20.40;85.80;;;;;;5083660;27;20499;-63
2021/07/18 00:12:18;;;;;;;19.33;12.30;;;20.40;85.90;;;;;;5082938;28;20035;-64
2021/07/18 00:14:44;;;;;;;17.92;12.20;;;20.40;85.80;;;;;;5084934;27;20578;-64
2021/07/18 00:17:10;;;;;;;15.00;11.38;;;20.40;85.70;;;;;;5087471;27;20024;-63
2021/07/18 00:19:35;;;;;;;13.93;11.30;;;20.40;85.80;;;;;;5088997;28;20036;-64
2021/07/18 00:22:01;;;;;;;16.05;11.43;;;20.40;85.70;;;;;;5084989;27;20063;-64
2021/07/18 00:24:27;;;;;;;15.05;11.30;;;20.50;85.70;;;;;;5084491;27;20124;-63
2021/07/18 00:26:52;;;;;;;15.20;10.73;;;20.50;85.70;;;;;;5085995;28;20581;-64
2021/07/18 00:29:18;;;;;;;17.23;11.02;;;20.50;85.70;;;;;;5084302;27;20032;-63
2021/07/18 00:31:44;;;;;;;17.55;10.73;;;20.50;85.70;;;;;;5083210;28;20040;-64
2021/07/18 00:34:09;;;;;;;12.30;10.48;;;20.50;85.50;;;;;;5086229;27;20028;-64
2021/07/18 00:36:36;;;;;;;11.38;9.82;;;20.50;85.30;;;;;;5083284;27;20032;-64
2021/07/18 00:39:02;;;;;;;11.38;9.70;;;20.50;85.30;;;;;;5085595;28;20498;-64
2021/07/18 00:41:28;;;;;;;18.17;10.23;;;20.50;85.30;;;;;;5088875;27;20081;-64
2021/07/18 00:43:53;;;;;;;12.73;9.23;;;20.50;85.00;;;;;;5085997;28;20028;-65
2021/07/18 00:46:19;;;;;;;10.60;9.43;;;20.50;85.00;;;;;;5085698;27;20032;-64
2021/07/18 00:48:45;;;;;;;14.18;9.70;;;20.50;84.90;;;;;;5081597;27;20127;-63
2021/07/18 00:51:10;;;;;;;15.82;8.95;;;20.50;84.90;;;;;;5084546;28;21455;-64
2021/07/18 00:53:36;;;;;;;11.30;9.25;;;20.50;85.00;;;;;;5084853;27;20408;-64
2021/07/18 00:56:02;;;;;;;10.93;9.10;;;20.50;84.80;;;;;;5086029;28;20105;-64
2021/07/18 00:58:30;;;;;;;9.70;8.45;;;20.50;84.70;;;;;;5087923;27;20044;-63
2021/07/18 01:00:57;;;;;;;11.32;8.68;;;20.50;84.80;;;;;;5082085;27;20047;-64
2021/07/18 01:03:25;;;;;;;12.70;8.30;;;20.50;84.80;;;;;;5086610;28;20402;-64
2021/07/18 01:05:51;;;;;;;9.52;8.18;;;20.50;85.50;;;;;;5085424;27;20043;-64
2021/07/18 01:08:16;;;;;;;8.90;7.93;;;20.50;84.60;;;;;;5088013;28;20024;-64
2021/07/18 01:10:42;;;;;;;11.38;8.32;;;20.50;84.60;;;;;;5081818;27;20040;-64
2021/07/18 01:13:09;;;;;;;14.07;7.72;;;20.60;84.50;;;;;;5082847;27;20031;-64
2021/07/18 01:15:35;;;;;;;11.90;7.88;;;20.50;84.20;;;;;;5087331;28;20024;-64
2021/07/18 01:18:01;;;;;;;8.70;7.53;;;20.50;84.10;;;;;;5086745;27;20032;-64
2021/07/18 01:20:27;;;;;;;7.97;7.07;;;20.60;84.00;;;;;;5083624;27;20518;-64
2021/07/18 01:22:54;;;;;;;11.95;7.13;;;20.50;83.80;;;;;;5082616;28;20051;-64
2021/07/18 01:25:19;;;;;;;8.93;7.45;;;20.50;83.50;;;;;;5092071;27;20739;-64
2021/07/18 01:27:45;;;;;;;7.82;7.05;;;20.50;83.30;;;;;;5084957;27;20131;-64
2021/07/18 01:30:13;;;;;;;8.43;7.40;;;20.50;83.30;;;;;;5084894;28;20445;-64
2021/07/18 01:32:41;;;;;;;7.43;6.53;;;20.40;83.30;;;;;;5084014;27;20129;-64
2021/07/18 01:35:07;;;;;;;10.57;6.90;;;20.30;83.30;;;;;;5083279;28;20407;-64
2021/07/18 01:37:33;;;;;;;8.27;6.32;;;20.30;83.40;;;;;;5084248;28;20040;-64
2021/07/18 01:39:59;;;;;;;9.32;6.97;;;20.30;83.60;;;;;;5079597;28;20020;-64
2021/07/18 01:42:25;;;;;;;7.18;6.40;;;20.20;83.50;;;;;;5082907;27;22084;-63
2021/07/18 01:44:51;;;;;;;7.88;6.18;;;20.20;83.60;;;;;;5083152;27;20165;-64
2021/07/18 01:47:17;;;;;;;9.27;6.25;;;20.20;83.70;;;;;;5087942;27;20099;-64
2021/07/18 01:49:43;;;;;;;8.90;6.97;;;20.20;83.70;;;;;;5081973;27;20028;-64
2021/07/18 01:52:09;;;;;;;9.13;6.32;;;20.20;83.80;;;;;;5085946;28;20036;-63
2021/07/18 01:54:35;;;;;;;9.60;6.10;;;20.20;83.70;;;;;;5081201;27;20040;-64
2021/07/18 01:57:17;;;;;;;12.05;6.55;;;20.20;83.70;;;;;;5084951;28;20088;-64
2021/07/18 01:59:44;;;;;;;7.85;5.88;;;20.20;84.30;;;;;;5085004;28;20024;-63
2021/07/18 02:02:09;;;;;;;9.65;5.78;;;20.20;83.50;;;;;;5083840;27;20063;-64
2021/07/18 02:04:35;;;;;;;7.97;5.43;;;20.20;83.60;;;;;;5081256;27;20063;-64
2021/07/18 02:07:04;;;;;;;11.65;6.30;;;20.10;83.40;;;;;;5094602;27;20445;-63
2021/07/18 02:09:30;;;;;;;6.85;5.95;;;20.10;83.30;;;;;;5086090;27;20096;-64
2021/07/18 02:11:56;;;;;;;14.40;5.40;;;20.10;84.00;;;;;;5081059;28;20519;-64
2021/07/18 02:14:22;;;;;;;8.60;5.55;;;20.10;83.50;;;;;;5081674;27;20089;-64
2021/07/18 02:16:49;;;;;;;11.77;6.10;;;20.10;83.70;;;;;;5079924;28;20032;-64
2021/07/18 02:19:16;;;;;;;6.28;5.65;;;20.10;83.60;;;;;;5081280;28;20048;-63
2021/07/18 02:21:42;;;;;;;8.35;5.32;;;20.10;83.50;;;;;;5083184;27;20094;-64
2021/07/18 02:24:08;;;;;;;8.07;5.43;;;20.10;83.60;;;;;;5084522;28;20518;-66
2021/07/18 02:26:34;;;;;;;12.25;5.65;;;20.10;83.50;;;;;;5085202;27;20123;-64
2021/07/18 02:29:00;;;;;;;7.18;5.18;;;20.10;83.50;;;;;;5086847;27;20115;-64
2021/07/18 02:31:26;;;;;;;8.70;5.45;;;20.00;83.30;;;;;;5085482;28;20036;-64
2021/07/18 02:33:51;;;;;;;9.00;5.88;;;20.10;83.30;;;;;;5084986;27;20388;-64
2021/07/18 02:36:17;;;;;;;7.72;5.25;;;20.00;82.70;;;;;;5085527;28;20032;-64
2021/07/18 02:38:43;;;;;;;7.43;4.97;;;20.00;82.60;;;;;;5082722;27;20543;-64
2021/07/18 02:41:09;;;;;;;6.00;4.47;;;20.00;82.60;;;;;;5084348;27;20107;-64
2021/07/18 02:43:34;;;;;;;7.68;5.20;;;19.90;82.80;;;;;;5079094;28;20032;-63
2021/07/18 02:46:00;;;;;;;9.82;4.85;;;19.90;82.90;;;;;;5082210;27;20071;-64
2021/07/18 02:48:26;;;;;;;7.55;5.03;;;19.90;83.00;;;;;;5081977;27;20441;-64
2021/07/18 02:50:52;;;;;;;6.90;4.68;;;19.90;83.00;;;;;;5084943;28;20036;-64
2021/07/18 02:53:17;;;;;;;6.53;4.70;;;19.90;82.90;;;;;;5079531;28;20021;-64
2021/07/18 02:55:43;;;;;;;7.22;4.72;;;19.90;82.90;;;;;;5087787;27;20160;-64
2021/07/18 02:58:09;;;;;;;5.85;4.43;;;19.90;82.60;;;;;;5083558;27;20103;-64
2021/07/18 03:00:35;;;;;;;7.30;4.47;;;19.90;82.40;;;;;;5081647;27;20028;-64
2021/07/18 03:03:00;;;;;;;6.28;4.18;;;19.80;82.20;;;;;;5084254;28;20047;-64
2021/07/18 03:05:26;;;;;;;6.90;4.60;;;19.80;81.90;;;;;;5081203;27;20093;-64
2021/07/18 03:07:52;;;;;;;9.60;4.60;;;19.70;81.60;;;;;;5083507;28;20110;-64
2021/07/18 03:10:18;;;;;;;11.15;4.50;;;19.60;81.70;;;;;;5081739;28;20032;-65
2021/07/18 03:12:44;;;;;;;6.55;4.05;;;19.60;81.80;;;;;;5082112;27;20036;-64
2021/07/18 03:15:12;;;;;;;5.22;4.07;;;19.50;81.70;;;;;;5084126;27;20254;-64
2021/07/18 03:17:38;;;;;;;5.65;4.28;;;19.50;81.70;;;;;;5084124;27;20037;-64
2021/07/18 03:20:09;;;;;;;6.03;4.28;;;19.40;81.70;;;;;;5083946;28;20093;-64
2021/07/18 03:22:35;;;;;;;6.63;4.25;;;19.40;81.70;;;;;;5082276;27;20047;-64
2021/07/18 03:25:05;;;;;;;11.68;4.55;;;19.30;81.50;;;;;;5083608;28;20032;-64
2021/07/18 03:27:30;;;;;;;6.88;4.50;;;19.20;81.40;;;;;;5082820;28;20028;-64
2021/07/18 03:29:56;;;;;;;9.32;4.93;;;19.20;81.50;;;;;;5085320;27;20054;-64
2021/07/18 03:32:22;;;;;;;6.93;4.78;;;19.10;81.50;;;;;;5082761;27;20040;-64
2021/07/18 03:34:47;;;;;;;6.95;4.82;;;19.00;81.90;;;;;;5082120;28;20070;-64
2021/07/18 03:37:14;;;;;;;7.93;4.68;;;18.90;82.20;;;;;;5082854;28;20039;-64
2021/07/18 03:39:40;;;;;;;9.02;5.13;;;18.80;82.40;;;;;;5083463;28;20150;-65
2021/07/18 03:42:05;;;;;;;8.52;5.30;;;18.80;82.60;;;;;;5082692;27;20115;-65
2021/07/18 03:44:31;;;;;;;9.18;5.40;;;18.70;82.90;;;;;;5082103;27;20033;-64
2021/07/18 03:46:56;;;;;;;9.27;5.28;;;18.70;83.10;;;;;;5082804;28;20515;-63
2021/07/18 03:49:22;;;;;;;11.48;5.32;;;18.70;83.10;;;;;;5082149;27;20543;-64
2021/07/18 03:51:48;;;;;;;8.57;5.28;;;18.60;83.10;;;;;;5083167;28;20036;-64
2021/07/18 03:54:13;;;;;;;7.30;5.15;;;18.60;83.10;;;;;;5081021;27;20032;-64
2021/07/18 03:56:39;;;;;;;6.80;5.25;;;18.60;84.00;;;;;;5079658;27;20475;-63
2021/07/18 03:59:05;;;;;;;6.95;4.70;;;18.60;83.20;;;;;;5084862;28;20395;-64
2021/07/18 04:01:30;;;;;;;6.07;4.15;;;18.60;82.80;;;;;;5085722;27;20140;-64
2021/07/18 04:03:56;;;;;;;8.00;4.72;;;18.50;82.70;;;;;;5082093;28;20525;-64
2021/07/18 04:06:22;;;;;;;5.93;4.70;;;18.50;82.70;;;;;;5080831;27;20024;-64
2021/07/18 04:08:47;;;;;;;6.78;4.78;;;18.50;82.70;;;;;;5080158;27;20024;-64
2021/07/18 04:11:13;;;;;;;12.43;5.03;;;18.50;82.70;;;;;;5083805;27;20494;-64
2021/07/18 04:13:39;;;;;;;8.13;4.53;;;18.40;82.70;;;;;;5078832;28;20025;-64
2021/07/18 04:16:07;;;;;;;7.30;4.47;;;18.40;82.70;;;;;;5082836;28;20584;-64
2021/07/18 04:18:33;;;;;;;6.80;4.97;;;18.30;82.70;;;;;;5079008;27;20028;-64
2021/07/18 04:20:59;;;;;;;8.38;4.75;;;18.30;82.80;;;;;;5081852;27;20024;-64
2021/07/18 04:23:25;;;;;;;9.05;4.93;;;18.30;82.90;;;;;;5082867;28;20028;-64
2021/07/18 04:25:51;;;;;;;6.47;4.45;;;18.20;82.90;;;;;;5083532;27;20028;-65
2021/07/18 04:28:17;;;;;;;6.70;4.78;;;18.10;83.10;;;;;;5082259;28;20123;-64
2021/07/18 04:30:42;;;;;;;6.10;4.57;;;18.10;83.40;;;;;;5087203;27;20143;-64
2021/07/18 04:33:08;;;;;;;6.82;4.88;;;18.20;83.60;;;;;;5086047;27;20151;-65
2021/07/18 04:35:34;;;;;;;6.18;4.30;;;18.10;83.60;;;;;;5086915;28;20055;-64
2021/07/18 04:38:00;;;;;;;9.45;4.70;;;18.10;83.50;;;;;;5087766;27;20503;-64
2021/07/18 04:40:28;;;;;;;5.65;4.03;;;18.10;84.30;;;;;;5084900;27;20028;-63
2021/07/18 04:42:54;;;;;;;6.57;4.07;;;18.10;83.50;;;;;;5085178;28;20123;-64
2021/07/18 04:45:20;;;;;;;7.45;4.13;;;18.10;83.60;;;;;;5086059;27;20157;-64
2021/07/18 04:47:47;;;;;;;7.30;4.45;;;18.20;83.70;;;;;;5085099;28;20032;-63
2021/07/18 04:50:14;;;;;;;7.50;4.18;;;18.10;83.60;;;;;;5084318;27;20047;-64
2021/07/18 04:52:40;;;;;;;10.48;4.53;;;18.10;83.60;;;;;;5086785;27;20033;-64
2021/07/18 04:55:08;;;;;;;7.07;4.05;;;18.10;83.30;;;;;;5084932;27;20036;-64
2021/07/18 04:57:34;;;;;;;10.45;4.20;;;18.10;83.30;;;;;;5086661;27;20035;-64
2021/07/18 05:00:00;;;;;;;6.30;4.20;;;18.10;83.20;;;;;;5082809;28;20032;-64
2021/07/18 05:02:26;;;;;;;11.52;3.85;;;18.10;83.10;;;;;;5085658;27;20032;-64
2021/07/18 05:04:54;;;;;;;7.07;3.70;;;18.10;83.40;;;;;;5081174;27;20385;-64
2021/07/18 05:07:19;;;;;;;4.72;3.67;;;18.10;83.60;;;;;;5087351;28;20024;-64
2021/07/18 05:09:45;;;;;;;5.90;3.47;;;18.10;83.80;;;;;;5082853;27;20450;-64
2021/07/18 05:12:11;;;;;;;6.72;3.95;;;18.10;84.00;;;;;;5082163;28;20040;-64
2021/07/18 05:14:36;;;;;;;6.45;3.55;;;18.20;84.00;;;;;;5083964;27;20073;-64
2021/07/18 05:17:02;;;;;;;5.55;3.35;;;18.20;84.80;;;;;;5082528;28;20028;-64
2021/07/18 05:19:28;;;;;;;7.13;3.42;;;18.30;83.90;;;;;;5082724;28;20055;-64
2021/07/18 05:21:57;;;;;;;5.05;3.65;;;18.30;84.00;;;;;;5084147;27;20038;-64
2021/07/18 05:24:23;;;;;;;6.90;3.38;;;18.40;84.20;;;;;;5083076;27;20070;-65
2021/07/18 05:26:49;;;;;;;5.53;3.55;;;18.40;84.20;;;;;;5085053;28;20032;-64
2021/07/18 05:29:15;;;;;;;5.45;3.67;;;18.40;84.10;;;;;;5087439;27;20047;-64
2021/07/18 05:31:40;;;;;;;6.43;3.30;;;18.50;84.10;;;;;;5084932;28;20040;-64
2021/07/18 05:34:06;;;;;;;4.15;3.20;;;18.50;84.20;;;;;;5084534;27;20538;-64
2021/07/18 05:36:32;;;;;;;4.45;3.17;;;18.60;84.40;;;;;;5083720;27;20076;-64
2021/07/18 05:38:57;;;;;;;6.07;2.92;;;18.60;84.10;;;;;;5081822;28;20036;-64
2021/07/18 05:41:23;;;;;;;6.00;3.05;;;18.60;83.70;;;;;;5084001;27;20118;-64
2021/07/18 05:43:48;;;;;;;5.47;3.13;;;18.70;83.70;;;;;;5084078;27;20746;-64
2021/07/18 05:46:14;;;;;;;4.20;2.70;;;18.80;83.20;;;;;;5084429;27;20028;-64
2021/07/18 05:48:40;;;;;;;9.25;3.17;;;18.80;83.20;;;;;;5081404;27;20052;-64
2021/07/18 05:51:05;;;;;;;4.25;2.75;;;18.90;83.60;;;;;;5084922;28;20024;-64
2021/07/18 05:53:31;;;;;;;7.32;3.10;;;19.00;83.70;;;;;;5087997;27;20082;-64
2021/07/18 05:55:57;;;;;;;4.78;2.80;;;19.00;83.10;;;;;;5083825;28;20043;-64
2021/07/18 05:58:22;;;;;;;5.35;2.92;;;19.10;82.50;;;;;;5082179;27;20032;-65
2021/07/18 06:00:48;;;;;;;7.15;2.58;;;19.20;82.50;;;;;;5085350;27;20127;-64
2021/07/18 06:03:13;;;;;;;6.40;2.83;;;19.20;82.20;;;;;;5077506;28;20060;-64
2021/07/18 06:05:39;;;;;;;3.42;2.55;;;19.20;82.70;;;;;;5079165;28;20036;-64
2021/07/18 06:08:05;;;;;;;5.93;2.95;;;19.20;82.40;;;;;;5077835;27;20032;-64
2021/07/18 06:10:31;;;;;;;4.25;2.47;;;19.30;81.50;;;;;;5079165;27;20036;-64
2021/07/18 06:12:57;;;;;;;4.55;2.53;;;19.30;81.50;;;;;;5080659;27;20061;-64
2021/07/18 06:15:23;;;;;;;4.30;2.63;;;19.30;81.50;;;;;;5082910;28;20036;-65
2021/07/18 06:17:48;;;;;;;5.85;2.67;;;19.30;81.70;;;;;;5080882;27;20042;-64
2021/07/18 06:20:14;;;;;;;5.75;2.70;;;19.40;81.70;;;;;;5084612;28;20032;-64
2021/07/18 06:22:40;;;;;;;3.22;2.83;;;19.40;81.60;;;;;;5085662;27;20032;-65
2021/07/18 06:25:09;;;;;;;5.95;2.40;;;19.50;81.60;;;;;;5085040;27;20583;-65
2021/07/18 06:27:36;;;;;;;3.15;2.78;;;19.50;82.60;;;;;;5082981;28;20119;-65
2021/07/18 06:30:03;;;;;;;4.70;2.10;;;19.60;81.90;;;;;;5080621;28;20077;-65
2021/07/18 06:32:29;;;;;;;4.03;2.40;;;19.60;81.40;;;;;;5098601;27;20043;-64
2021/07/18 06:34:55;;;;;;;3.08;2.28;;;19.70;81.30;;;;;;5081122;28;20131;-65
2021/07/18 06:37:20;;;;;;;4.78;2.33;;;19.80;81.40;;;;;;5085216;28;20120;-65
2021/07/18 06:39:46;;;;;;;5.20;2.35;;;19.80;81.50;;;;;;5082848;28;20126;-64
2021/07/18 06:42:12;;;;;;;4.05;2.42;;;19.90;80.30;;;;;;5082720;27;20887;-65
2021/07/18 06:44:37;;;;;;;4.18;1.80;;;19.90;80.10;;;;;;5084846;27;20028;-64
2021/07/18 06:47:03;;;;;;;4.45;2.20;;;20.00;79.90;;;;;;5084935;28;20039;-65
2021/07/18 06:49:29;;;;;;;4.60;2.08;;;20.00;80.10;;;;;;5081961;27;20036;-65
2021/07/18 06:51:54;;;;;;;8.00;2.42;;;20.10;80.10;;;;;;5084337;27;20035;-64
2021/07/18 06:54:20;;;;;;;4.03;1.90;;;20.10;79.40;;;;;;5085284;27;20024;-65
2021/07/18 06:56:46;;;;;;;3.88;1.80;;;20.20;79.60;;;;;;5081913;27;20507;-64
2021/07/18 06:59:11;;;;;;;4.80;1.90;;;20.20;79.60;;;;;;5086962;28;20063;-65
2021/07/18 07:01:37;;;;;;;5.95;2.30;;;20.30;79.60;;;;;;5084915;27;20969;-65
2021/07/18 07:04:03;;;;;;;4.72;1.90;;;20.30;78.60;;;;;;5079813;28;20035;-65
2021/07/18 07:06:28;;;;;;;4.05;2.25;;;20.40;78.60;;;;;;5085137;27;20050;-65
2021/07/18 07:08:54;;;;;;;3.58;1.80;;;20.30;78.10;;;;;;5080921;28;20020;-65
2021/07/18 07:11:21;;;;;;;4.38;2.17;;;20.50;78.40;;;;;;5082817;28;20028;-65
2021/07/18 07:13:48;;;;;;;3.47;2.30;;;20.50;77.70;;;;;;5078174;28;20028;-65
2021/07/18 07:16:13;;;;;;;4.35;2.17;;;20.50;77.00;;;;;;5085805;28;20032;-65
2021/07/18 07:18:39;;;;;;;4.30;2.15;;;20.60;76.80;;;;;;5081365;27;20453;-65
2021/07/18 07:21:04;;;;;;;6.15;2.03;;;20.60;77.20;;;;;;5075764;28;20601;-65
2021/07/18 07:23:30;;;;;;;3.78;1.70;;;20.70;77.20;;;;;;5083583;27;20301;-65
2021/07/18 07:25:56;;;;;;;7.82;2.38;;;20.70;77.30;;;;;;5083960;28;20044;-65
2021/07/18 07:28:22;;;;;;;5.75;2.20;;;20.80;76.50;;;;;;5084563;27;20051;-65
2021/07/18 07:30:47;;;;;;;3.25;2.08;;;20.80;76.30;;;;;;5083336;27;20040;-64
2021/07/18 07:33:14;;;;;;;5.22;2.13;;;20.80;76.30;;;;;;5083057;28;20028;-65
2021/07/18 07:35:40;;;;;;;10.40;2.00;;;20.90;76.10;;;;;;5080916;28;20483;-65
2021/07/18 07:38:07;;;;;;;3.33;1.85;;;20.90;76.40;;;;;;5084757;28;20032;-65
2021/07/18 07:40:33;;;;;;;3.10;1.88;;;21.00;75.90;;;;;;5084288;27;20028;-65
2021/07/18 07:42:58;;;;;;;3.47;2.20;;;21.00;75.80;;;;;;5081761;27;20059;-65
2021/07/18 07:45:24;;;;;;;2.78;1.60;;;21.10;76.00;;;;;;5084405;28;20043;-65
2021/07/18 07:47:49;;;;;;;4.25;1.80;;;21.20;75.80;;;;;;5082253;28;20530;-65
2021/07/18 07:50:15;;;;;;;2.47;1.88;;;21.20;76.60;;;;;;5076671;28;20036;-65
2021/07/18 07:52:41;;;;;;;4.78;1.95;;;21.30;75.30;;;;;;5085086;27;20021;-65
2021/07/18 07:55:09;;;;;;;3.42;2.03;;;21.40;75.30;;;;;;5083029;27;20028;-64
2021/07/18 07:57:35;;;;;;;4.07;2.10;;;21.50;75.30;;;;;;5085248;28;20040;-65
2021/07/18 08:00:03;;;;;;;2.65;2.17;;;21.50;73.50;;;;;;5082553;27;20398;-65
2021/07/18 08:02:28;;;;;;;2.70;1.77;;;21.50;72.70;;;;;;5081251;27;20071;-64
2021/07/18 08:04:54;;;;;;;5.35;1.90;;;21.60;73.00;;;;;;5084763;28;20036;-65
2021/07/18 08:07:20;;;;;;;4.38;2.17;;;21.60;73.20;;;;;;5087245;27;20047;-65
2021/07/18 08:09:45;;;;;;;3.72;1.77;;;21.70;72.80;;;;;;5086893;28;20040;-64
2021/07/18 08:12:11;;;;;;;3.33;1.95;;;21.70;72.30;;;;;;5086020;28;20036;-65
2021/07/18 08:14:36;;;;;;;5.03;2.25;;;21.80;73.00;;;;;;5086078;27;20067;-65
2021/07/18 08:17:03;;;;;;;4.70;2.35;;;21.80;72.30;;;;;;5085758;27;20040;-64
2021/07/18 08:19:29;;;;;;;4.10;2.30;;;21.90;72.50;;;;;;5086468;27;20044;-65
2021/07/18 08:21:54;;;;;;;4.65;1.88;;;21.90;71.90;;;;;;5083899;27;20089;-65
2021/07/18 08:24:20;;;;;;;3.53;2.05;;;22.00;71.50;;;;;;5087930;28;20102;-65
2021/07/18 08:26:45;;;;;;;5.72;2.17;;;22.00;70.90;;;;;;5084606;27;20032;-65
2021/07/18 08:29:11;;;;;;;2.50;1.98;;;22.10;70.90;;;;;;5088032;27;20028;-65
2021/07/18 08:31:36;;;;;;;3.72;2.08;;;22.10;70.70;;;;;;5087328;28;20127;-65
2021/07/18 08:34:03;;;;;;;4.65;2.20;;;22.20;71.40;;;;;;5082137;27;20671;-64
2021/07/18 08:36:28;;;;;;;2.20;1.67;;;22.30;70.50;;;;;;5087037;27;20054;-64
2021/07/18 08:38:54;;;;;;;3.83;1.77;;;22.30;70.90;;;;;;5080734;28;20035;-65
2021/07/18 08:41:22;;;;;;;4.65;2.03;;;22.40;71.30;;;;;;5080998;27;20057;-65
2021/07/18 08:43:50;;;;;;;8.02;2.65;;;22.40;71.30;;;;;;5081935;28;20040;-65
2021/07/18 08:46:18;;;;;;;4.00;2.20;;;22.50;70.60;;;;;;5083577;27;20024;-65
2021/07/18 08:48:45;;;;;;;4.80;2.30;;;22.50;71.10;;;;;;5079627;27;20075;-65
2021/07/18 08:51:13;;;;;;;4.75;2.00;;;22.60;70.90;;;;;;5083121;28;20032;-65
2021/07/18 08:53:40;;;;;;;6.72;2.63;;;22.70;70.90;;;;;;5080420;27;20028;-64
2021/07/18 08:56:06;;;;;;;4.38;2.28;;;22.80;70.60;;;;;;5081532;28;20035;-65
2021/07/18 08:58:31;;;;;;;3.40;2.30;;;22.90;69.40;;;;;;5096800;27;20028;-65
2021/07/18 09:00:57;;;;;;;2.60;2.22;;;22.90;69.30;;;;;;5078433;28;20503;-65
2021/07/18 09:03:23;;;;;;;5.10;2.58;;;23.00;69.50;;;;;;5082590;27;20120;-65
2021/07/18 09:05:52;;;;;;;9.18;2.67;;;23.10;70.70;;;;;;5083452;27;20477;-65
2021/07/18 09:08:20;;;;;;;4.40;2.60;;;23.20;67.70;;;;;;5080615;28;20151;-65
2021/07/18 09:10:47;;;;;;;2.17;1.92;;;23.20;67.40;;;;;;5081408;27;20046;-64
2021/07/18 09:13:13;;;;;;;2.65;2.15;;;23.30;69.00;;;;;;5081310;27;20032;-65
2021/07/18 09:15:46;;;;;;;3.67;2.22;;;23.40;69.00;;;;;;5080187;28;20040;-65
2021/07/18 09:18:22;;;;;;;3.22;1.90;;;23.50;67.80;;;;;;5087030;27;20129;-65
2021/07/18 09:20:50;;;;;;;3.33;2.00;;;23.60;66.60;;;;;;5078455;27;20153;-65
2021/07/18 09:23:28;;;;;;;2.83;2.17;;;23.60;67.50;;;;;;5079117;28;20474;-65
2021/07/18 09:26:20;;;;;;;2.67;2.10;;;23.70;65.70;;;;;;5081638;27;20452;-64
2021/07/18 09:28:46;;;;;;;4.57;2.40;;;23.70;65.30;;;;;;5080713;28;20126;-65
2021/07/18 09:31:29;;;;;;;3.95;2.78;;;23.80;66.90;;;;;;5080542;27;20055;-65
2021/07/18 09:34:16;;;;;;;4.28;3.47;;;23.80;64.40;;;;;;5077453;28;20059;-65
2021/07/18 09:36:42;;;;;;;3.30;3.00;;;24.00;65.20;;;;;;5083356;28;20105;-65
2021/07/18 09:39:10;;;;;;;2.50;2.28;;;24.00;65.00;;;;;;5080076;28;20029;-65
2021/07/18 09:41:43;;;;;;;3.08;2.58;;;24.00;65.30;;;;;;5080188;27;20132;-65
2021/07/18 09:44:09;;;;;;;4.50;2.80;;;24.00;65.00;;;;;;5078981;28;20266;-65
2021/07/18 09:46:36;;;;;;;3.70;2.78;;;24.10;65.30;;;;;;5081022;27;20375;-65
2021/07/18 09:49:04;;;;;;;5.00;2.80;;;24.10;65.00;;;;;;5065566;27;20032;-65
2021/07/18 09:51:31;;;;;;;3.13;2.83;;;24.10;65.90;;;;;;5066296;28;20063;-66
2021/07/18 09:54:07;;;;;;;3.20;2.92;;;24.20;66.50;;;;;;5073233;27;20107;-65
2021/07/18 09:56:33;;;;;;;4.18;2.58;;;24.30;65.10;;;;;;5069821;27;20063;-65
2021/07/18 09:58:59;;;;;;;3.53;3.05;;;24.40;66.40;;;;;;5065062;28;20127;-65
2021/07/18 10:01:25;;;;;;;4.32;2.70;;;24.40;66.50;;;;;;5066447;27;21067;-65
2021/07/18 10:03:52;;;;;;;4.78;2.80;;;24.50;66.20;;;;;;5066738;28;20032;-65
2021/07/18 10:06:20;;;;;;;5.38;3.17;;;24.60;65.60;;;;;;5067098;27;20031;-66
2021/07/18 10:08:50;;;;;;;5.65;2.90;;;24.70;65.30;;;;;;5075271;27;20518;-65
2021/07/18 10:11:21;;;;;;;3.75;3.42;;;24.70;65.80;;;;;;5067217;28;20059;-65
2021/07/18 10:13:50;;;;;;;5.70;4.35;;;24.80;65.30;;;;;;5068625;27;20558;-65
2021/07/18 10:16:17;;;;;;;6.40;5.10;;;25.00;65.70;;;;;;5067140;28;20032;-65
2021/07/18 10:18:44;;;;;;;6.22;4.80;;;25.00;65.00;;;;;;5068195;27;20028;-65
2021/07/18 10:21:18;;;;;;;7.38;4.60;;;25.10;64.40;;;;;;5067228;27;20028;-65
2021/07/18 10:23:44;;;;;;;7.88;4.55;;;25.10;64.00;;;;;;5075156;28;20115;-66
2021/07/18 10:26:33;;;;;;;6.43;4.15;;;25.20;64.20;;;;;;5072900;27;20419;-65
2021/07/18 10:28:59;;;;;;;6.43;4.40;;;25.30;64.00;;;;;;5068926;27;20032;-65
2021/07/18 10:31:34;;;;;;;5.32;3.92;;;25.30;64.40;;;;;;5070965;28;21902;-65
2021/07/18 10:34:03;;;;;;;6.43;5.40;;;25.40;64.50;;;;;;5083519;27;20046;-65
2021/07/18 10:36:29;;;;;;;8.80;6.20;;;25.50;64.60;;;;;;5074112;27;20056;-65
2021/07/18 10:38:55;;;;;;;9.23;6.25;;;25.60;64.20;;;;;;5079832;28;20111;-65
2021/07/18 10:41:41;;;;;;;6.88;5.80;;;25.70;64.60;;;;;;5084220;27;20107;-65
2021/07/18 10:44:11;;;;;;;9.68;7.57;;;25.70;63.40;;;;;;5079949;28;20073;-65
2021/07/18 10:46:42;;;;;;;8.90;7.10;;;25.80;63.60;;;;;;5082933;27;20032;-66
2021/07/18 10:49:14;;;;;;;7.25;6.50;;;25.90;62.70;;;;;;5083294;28;20056;-65
2021/07/18 10:51:50;;;;;;;7.57;6.13;;;26.00;63.10;;;;;;5077599;28;20048;-65
2021/07/18 10:54:19;;;;;;;7.10;5.80;;;26.00;63.00;;;;;;5079827;27;20028;-65
2021/07/18 10:56:46;;;;;;;6.20;5.60;;;26.10;62.60;;;;;;5078041;27;20570;-66
2021/07/18 10:59:34;;;;;;;6.80;5.60;;;26.10;61.10;;;;;;5076774;28;20036;-66
2021/07/18 11:02:12;;;;;;;7.97;5.45;;;26.10;58.20;;;;;;5077946;28;20028;-66
2021/07/18 11:04:41;;;;;;;6.63;5.05;;;26.10;61.00;;;;;;5078675;27;20121;-66
2021/07/18 11:07:21;;;;;;;5.60;4.97;;;26.00;61.60;;;;;;5079601;28;21728;-66
2021/07/18 11:09:47;;;;;;;6.55;5.03;;;26.00;61.40;;;;;;5078122;27;20070;-65
2021/07/18 11:12:43;;;;;;;7.15;5.65;;;26.00;61.10;;;;;;5076374;28;20028;-65
2021/07/18 11:15:28;;;;;;;6.10;5.15;;;25.90;59.40;;;;;;5067610;28;20032;-65
2021/07/18 11:18:20;;;;;;;8.40;5.10;;;25.90;60.20;;;;;;5078415;27;20064;-65
2021/07/18 11:20:50;;;;;;;6.68;5.03;;;25.90;58.90;;;;;;5076738;27;20045;-66
2021/07/18 11:23:21;;;;;;;5.82;5.22;;;25.90;60.70;;;;;;5078431;28;20077;-65
2021/07/18 11:25:53;;;;;;;6.80;5.30;;;25.90;61.50;;;;;;5080956;27;20032;-65
2021/07/18 11:28:35;;;;;;;6.55;5.22;;;25.90;61.90;;;;;;5080150;28;20047;-65
2021/07/18 11:31:10;;;;;;;6.20;5.20;;;26.00;60.60;;;;;;5077453;27;20051;-65
2021/07/18 11:33:36;;;;;;;6.00;4.90;;;26.00;60.40;;;;;;5076086;27;20047;-65
2021/07/18 11:36:01;;;;;;;6.07;4.10;;;26.10;60.80;;;;;;5075390;28;20036;-65
2021/07/18 11:38:27;;;;;;;4.32;3.95;;;26.10;60.60;;;;;;5073129;28;20051;-66
2021/07/18 11:40:53;;;;;;;7.15;5.53;;;26.10;58.80;;;;;;5079438;27;20039;-65
2021/07/18 11:43:21;;;;;;;7.93;5.70;;;26.00;59.00;;;;;;5076560;28;21621;-65
2021/07/18 11:45:47;;;;;;;7.15;5.70;;;26.00;58.30;;;;;;5073316;27;20043;-65
2021/07/18 11:48:15;;;;;;;5.53;5.00;;;25.90;58.60;;;;;;5076862;28;20044;-66
2021/07/18 11:50:41;;;;;;;6.60;5.32;;;25.90;59.10;;;;;;5073965;27;20036;-65
2021/07/18 11:53:06;;;;;;;5.32;4.82;;;25.90;59.50;;;;;;5077542;27;20084;-65
2021/07/18 11:55:32;;;;;;;6.35;4.25;;;25.80;60.50;;;;;;5073053;28;20081;-65
2021/07/18 11:57:58;;;;;;;7.25;5.30;;;25.90;59.90;;;;;;5079938;27;20044;-65
2021/07/18 12:00:23;;;;;;;6.10;4.85;;;25.90;59.50;;;;;;5076319;27;20043;-66
2021/07/18 12:02:51;;;;;;;5.40;4.50;;;25.90;59.50;;;;;;5073921;28;20166;-64
2021/07/18 12:05:18;;;;;;;7.75;4.75;;;26.00;58.80;;;;;;5075254;27;20055;-63
2021/07/18 12:07:44;;;;;;;7.50;5.22;;;26.00;58.40;;;;;;5077790;28;20616;-64
2021/07/18 12:10:21;;;;;;;7.70;5.03;;;26.00;57.80;;;;;;5077302;27;20752;-63
2021/07/18 12:12:47;;;;;;;5.30;4.82;;;26.00;57.50;;;;;;5076521;27;20039;-63
2021/07/18 12:15:13;;;;;;;6.88;5.10;;;26.00;58.10;;;;;;5076286;28;20032;-63
2021/07/18 12:17:39;;;;;;;5.38;4.88;;;26.00;58.50;;;;;;5076235;28;20380;-63
2021/07/18 12:20:05;;;;;;;6.22;4.80;;;26.00;58.00;;;;;;5075080;28;20542;-63
2021/07/18 12:22:31;;;;;;;7.00;4.97;;;26.00;57.80;;;;;;5077007;27;20040;-63
2021/07/18 12:24:57;;;;;;;4.72;4.20;;;25.90;58.10;;;;;;5076512;27;20422;-63
2021/07/18 12:27:27;;;;;;;6.15;4.20;;;25.90;58.10;;;;;;5079973;28;20035;-63
2021/07/18 12:29:54;;;;;;;5.65;4.35;;;25.90;57.20;;;;;;5079815;27;20571;-63
2021/07/18 12:32:24;;;;;;;5.07;3.78;;;25.90;57.10;;;;;;5077787;28;20066;-63
2021/07/18 12:34:54;;;;;;;4.60;4.18;;;25.90;57.40;;;;;;5074885;28;20040;-63
2021/07/18 12:37:22;;;;;;;5.22;3.85;;;26.00;57.10;;;;;;5080122;27;20119;-63
2021/07/18 12:39:50;;;;;;;3.70;3.40;;;26.00;56.60;;;;;;5077650;28;20039;-63
2021/07/18 12:42:32;;;;;;;5.18;4.18;;;26.00;56.50;;;;;;5082518;27;20530;-64
2021/07/18 12:45:09;;;;;;;2.90;2.60;;;26.10;56.40;;;;;;5076468;27;20113;-64